»·PEaware :: N650WA KPRC-KAPA

N650WA :: KPRC-KAPA

FLIGHT INFORMATION

Flight Status: Arrived
Operator: Privately registered:
United States
More flights under this callsign
Pilot: Anonymous 33184 (33184)
Aircraft: CANADAIR CL-600 CHALLENGER
(CL60)
More flights by this aircraft type
Origin: KPRC Love
United States
Destination: KAPA Centennial
United States
More flights between these airports :: More routes between these airports
Route: DRK INW RSK STIFS ZOMBZ5
File this flight plan on PilotEdge
Remarks: XP11 Default Scenery
Altitude:
(Current/Filed)
31,000ft
Speed:
(Current/Filed)
481kts
Departed: 27-Jul-23 01:23 PM
Arrived: 27-Jul-23 02:36 PM
Distance/Time
Traveled:
467nm/1:13
Distance/Time
To Go:
Arrived

Flight Plot

Page will automatically refresh every two minutes.

Flight plan parsing failed; only flown route is shown


Map Options




Map Legend


Flown Route
Filed Route
Departure Airport
Arrival Airport
Navaid (VOR, NDB)
Fix

Horizontal Profiles

Position Reports

Time Latitude Longitude Heading Altitude Ground
Speed
27-Jul-23 12:12 34.646742 -112.424430 39 5027ft 0kts
27-Jul-23 12:13 34.646742 -112.424430 39 5027ft 0kts
27-Jul-23 12:14 34.646742 -112.424430 39 5027ft 0kts
27-Jul-23 12:15 34.646742 -112.424430 39 5027ft 0kts
27-Jul-23 12:16 34.646742 -112.424430 39 5027ft 0kts
27-Jul-23 12:17 34.646742 -112.424430 39 5027ft 0kts
27-Jul-23 12:18 34.646742 -112.424430 39 5027ft 0kts
27-Jul-23 12:19 34.646742 -112.424430 39 5027ft 0kts
27-Jul-23 12:20 34.646742 -112.424430 39 5027ft 0kts
27-Jul-23 12:21 34.646742 -112.424430 39 5027ft 0kts
27-Jul-23 12:22 34.646742 -112.424430 39 5027ft 0kts
27-Jul-23 12:23 34.646742 -112.424430 39 5027ft 0kts
27-Jul-23 12:24 34.646742 -112.424430 39 5027ft 0kts
27-Jul-23 12:25 34.646742 -112.424430 39 5027ft 0kts
27-Jul-23 12:26 34.646742 -112.424430 39 5027ft 0kts
27-Jul-23 12:27 34.646742 -112.424430 39 5027ft 0kts
27-Jul-23 12:28 34.646742 -112.424430 39 5027ft 0kts
27-Jul-23 12:29 34.646742 -112.424430 39 5027ft 0kts
27-Jul-23 12:30 34.646742 -112.424430 39 5027ft 0kts
27-Jul-23 12:31 34.646742 -112.424430 39 5027ft 0kts
27-Jul-23 12:32 34.646742 -112.424430 39 5027ft 0kts
27-Jul-23 12:33 34.646742 -112.424430 39 5027ft 0kts
27-Jul-23 12:34 34.646742 -112.424430 39 5027ft 0kts
27-Jul-23 12:35 34.646742 -112.424430 39 5027ft 0kts
27-Jul-23 12:36 34.646742 -112.424430 39 5027ft 0kts
27-Jul-23 12:37 34.646742 -112.424430 39 5027ft 0kts
27-Jul-23 12:38 34.646742 -112.424430 39 5027ft 0kts
27-Jul-23 12:39 34.646742 -112.424430 39 5027ft 0kts
27-Jul-23 12:40 34.646742 -112.424430 39 5027ft 0kts
27-Jul-23 12:41 34.646742 -112.424430 39 5027ft 0kts
27-Jul-23 12:42 34.646742 -112.424430 39 5027ft 0kts
27-Jul-23 12:43 34.646742 -112.424430 39 5027ft 0kts
27-Jul-23 12:44 34.646742 -112.424430 39 5027ft 0kts
27-Jul-23 12:45 34.646742 -112.424430 39 5027ft 0kts
27-Jul-23 12:46 34.646742 -112.424430 39 5027ft 0kts
27-Jul-23 12:47 34.646742 -112.424430 39 5027ft 0kts
27-Jul-23 12:48 34.646742 -112.424430 39 5027ft 0kts
27-Jul-23 12:49 34.646742 -112.424430 39 5027ft 0kts
27-Jul-23 12:51 34.646742 -112.424430 39 5027ft 0kts
27-Jul-23 12:51 34.646742 -112.424430 39 5027ft 0kts
27-Jul-23 12:52 34.646742 -112.424430 39 5027ft 0kts
27-Jul-23 12:53 34.646742 -112.424430 39 5027ft 0kts
27-Jul-23 12:54 34.646742 -112.424430 39 5027ft 0kts
27-Jul-23 12:55 34.646742 -112.424430 39 5027ft 0kts
27-Jul-23 12:56 34.646742 -112.424430 39 5027ft 0kts
27-Jul-23 12:57 34.646742 -112.424430 39 5027ft 0kts
27-Jul-23 12:58 34.646742 -112.424430 39 5027ft 0kts
27-Jul-23 12:59 34.646742 -112.424430 39 5027ft 0kts
27-Jul-23 13:00 34.646742 -112.424430 39 5027ft 0kts
27-Jul-23 13:01 34.646742 -112.424430 39 5027ft 0kts
27-Jul-23 13:02 34.646742 -112.424430 39 5027ft 0kts
27-Jul-23 13:03 34.646742 -112.424430 39 5027ft 0kts
27-Jul-23 13:04 34.646742 -112.424430 39 5027ft 0kts
27-Jul-23 13:05 34.646742 -112.424430 39 5027ft 0kts
27-Jul-23 13:06 34.646742 -112.424430 39 5027ft 0kts
27-Jul-23 13:07 34.646742 -112.424430 39 5027ft 0kts
27-Jul-23 13:08 34.646742 -112.424430 39 5027ft 0kts
27-Jul-23 13:09 34.646742 -112.424430 39 5027ft 0kts
27-Jul-23 13:10 34.646742 -112.424430 39 5027ft 0kts
27-Jul-23 13:11 34.646742 -112.424430 39 5027ft 0kts
27-Jul-23 13:12 34.646806 -112.424397 1 5027ft 3kts
27-Jul-23 13:13 34.648721 -112.423856 43 5019ft 10kts
27-Jul-23 13:14 34.651843 -112.420551 41 5009ft 21kts
27-Jul-23 13:15 34.656408 -112.415703 41 4980ft 18kts
27-Jul-23 13:16 34.659231 -112.412026 41 4959ft 14kts
27-Jul-23 13:17 34.661592 -112.410595 308 4950ft 0kts
27-Jul-23 13:18 34.661592 -112.410595 308 4950ft 0kts
27-Jul-23 13:19 34.661592 -112.410595 308 4950ft 0kts
27-Jul-23 13:20 34.661592 -112.410595 308 4950ft 0kts
27-Jul-23 13:21 34.661870 -112.411649 220 4951ft 0kts
27-Jul-23 13:22 34.640359 -112.434507 222 5575ft 166kts
27-Jul-23 13:23 34.603413 -112.476103 256 7899ft 215kts
27-Jul-23 13:24 34.649061 -112.507136 11 10637ft 243kts
27-Jul-23 13:25 34.712485 -112.475725 47 13216ft 264kts
27-Jul-23 13:26 34.762108 -112.399907 49 15401ft 307kts
27-Jul-23 13:27 34.818967 -112.317571 49 18349ft 328kts
27-Jul-23 13:28 34.883237 -112.228298 50 20778ft 364kts
27-Jul-23 13:30 34.966088 -112.121597 45 24172ft 375kts
27-Jul-23 13:30 34.994358 -112.020320 89 25115ft 411kts
27-Jul-23 13:31 34.998348 -111.876233 89 27108ft 434kts
27-Jul-23 13:32 35.002576 -111.726909 89 29095ft 447kts
27-Jul-23 13:33 35.007176 -111.572966 89 30684ft 459kts
27-Jul-23 13:34 35.011691 -111.415196 89 32080ft 471kts
27-Jul-23 13:35 35.016086 -111.253652 89 33067ft 484kts
27-Jul-23 13:36 35.020559 -111.085845 89 33048ft 509kts
27-Jul-23 13:37 35.055409 -110.921054 50 33116ft 519kts
27-Jul-23 13:38 35.149006 -110.785292 49 33029ft 522kts
27-Jul-23 13:39 35.243066 -110.649560 49 33058ft 522kts
27-Jul-23 13:40 35.337016 -110.513974 49 33074ft 523kts
27-Jul-23 13:41 35.431432 -110.377879 49 33083ft 523kts
27-Jul-23 13:42 35.525630 -110.240885 53 33079ft 524kts
27-Jul-23 13:43 35.610940 -110.095578 54 33098ft 524kts
27-Jul-23 13:44 35.696200 -109.949523 54 33140ft 525kts
27-Jul-23 13:45 35.781324 -109.803308 54 33186ft 526kts
27-Jul-23 13:46 35.866239 -109.656897 54 33179ft 525kts
27-Jul-23 13:47 35.951181 -109.509869 54 33158ft 524kts
27-Jul-23 13:48 36.035625 -109.363059 54 33134ft 525kts
27-Jul-23 13:49 36.120441 -109.214998 54 33104ft 526kts
27-Jul-23 13:50 36.204973 -109.066795 54 33083ft 526kts
27-Jul-23 13:51 36.289529 -108.917909 54 33060ft 525kts
27-Jul-23 13:52 36.373487 -108.769430 54 33049ft 525kts
27-Jul-23 13:53 36.457374 -108.620440 54 33058ft 526kts
27-Jul-23 13:54 36.540956 -108.471339 54 33057ft 526kts
27-Jul-23 13:55 36.624375 -108.321874 54 33041ft 526kts
27-Jul-23 13:56 36.707602 -108.172102 54 33053ft 526kts
27-Jul-23 13:57 36.800701 -108.032046 44 33100ft 525kts
27-Jul-23 13:58 36.903604 -107.901758 44 33140ft 525kts
27-Jul-23 13:59 37.006088 -107.771399 44 33149ft 526kts
27-Jul-23 14:00 37.108447 -107.640586 44 33126ft 526kts
27-Jul-23 14:01 37.211025 -107.508913 44 33123ft 527kts
27-Jul-23 14:02 37.313322 -107.377073 44 33141ft 527kts
27-Jul-23 14:03 37.415639 -107.244650 44 33129ft 527kts
27-Jul-23 14:04 37.517664 -107.112037 44 33114ft 526kts
27-Jul-23 14:05 37.619640 -106.978946 44 33109ft 526kts
27-Jul-23 14:06 37.721192 -106.845836 44 33156ft 525kts
27-Jul-23 14:07 37.822621 -106.712311 44 33209ft 528kts
27-Jul-23 14:08 37.924654 -106.577453 44 33185ft 529kts
27-Jul-23 14:09 38.025870 -106.443080 44 33149ft 528kts
27-Jul-23 14:10 38.127674 -106.307370 45 33092ft 528kts
27-Jul-23 14:11 38.228784 -106.171981 45 33073ft 528kts
27-Jul-23 14:12 38.330068 -106.035771 45 33082ft 527kts
27-Jul-23 14:13 38.447268 -105.929082 24 33010ft 523kts
27-Jul-23 14:14 38.573110 -105.844078 25 31563ft 497kts
27-Jul-23 14:15 38.693639 -105.760748 26 27659ft 496kts
27-Jul-23 14:16 38.808017 -105.664684 43 22774ft 497kts
27-Jul-23 14:17 38.897648 -105.551773 42 22171ft 413kts
27-Jul-23 14:18 38.978188 -105.452132 42 20168ft 392kts
27-Jul-23 14:19 39.056991 -105.355194 42 20037ft 395kts
27-Jul-23 14:20 39.135292 -105.258742 42 18719ft 383kts
27-Jul-23 14:21 39.188337 -105.147469 87 16716ft 362kts
27-Jul-23 14:22 39.208358 -105.031883 50 14760ft 326kts
27-Jul-23 14:23 39.272465 -104.957215 6 12508ft 301kts
27-Jul-23 14:24 39.349380 -104.956207 356 12510ft 265kts
27-Jul-23 14:25 39.422370 -104.959279 355 12429ft 254kts
27-Jul-23 14:26 39.492965 -104.962498 356 10871ft 253kts
27-Jul-23 14:27 39.561967 -104.965635 357 9615ft 235kts
27-Jul-23 14:28 39.622328 -104.968361 357 9297ft 211kts
27-Jul-23 14:29 39.681098 -104.971040 357 9289ft 211kts
27-Jul-23 14:30 39.714884 -104.929499 87 8256ft 202kts
27-Jul-23 14:31 39.716972 -104.855766 87 7987ft 208kts
27-Jul-23 14:32 39.680651 -104.827318 191 8222ft 202kts
27-Jul-23 14:33 39.632759 -104.852734 188 7704ft 179kts
27-Jul-23 14:34 39.587612 -104.851685 176 6004ft 157kts
27-Jul-23 14:35 39.565027 -104.850354 110 5892ft 13kts
27-Jul-23 14:36 39.565088 -104.849313 66 5892ft 0kts
27-Jul-23 14:37 39.565088 -104.849313 66 5892ft 0kts
27-Jul-23 14:38 39.565088 -104.849313 66 5892ft 0kts
27-Jul-23 14:39 39.568719 -104.849357 357 5892ft 21kts
27-Jul-23 14:40 39.571337 -104.848758 88 5892ft 5kts
27-Jul-23 14:41 39.569719 -104.848095 179 5892ft 3kts
27-Jul-23 14:42 39.569670 -104.848094 179 5892ft 0kts
27-Jul-23 14:43 39.569670 -104.848094 179 5892ft 0kts
27-Jul-23 14:45 39.569670 -104.848094 179 5892ft 0kts

Navigation Log

Ident Type
Flight plan parsing failed, navigation log unavailable